Time;durP1;ratioP1;P1;durP2;ratioP2;P2;SDS_P1;SDS_P2;PMS_P1;PMS_P2;Temp;Humidity;BMP_temperature;BMP_pressure;BME280_temperature;BME280_humidity;BME280_pressure;Samples;Min_cycle;Max_cycle;Signal;HPM_P1;HPM_P2
2022/03/09 00:01:28;;;;;;;81.80;29.13;;;3.50;62.80;;;;;;4990259;28;20042;-75
2022/03/09 00:03:55;;;;;;;85.45;29.75;;;3.40;62.10;;;;;;5009120;28;20482;-75
2022/03/09 00:06:23;;;;;;;87.25;28.70;;;3.50;62.50;;;;;;4991734;28;20077;-75
2022/03/09 00:08:50;;;;;;;86.85;30.95;;;3.60;62.40;;;;;;4994642;28;20043;-75
2022/03/09 00:11:18;;;;;;;88.00;29.15;;;3.30;62.90;;;;;;4996401;28;20045;-75
2022/03/09 00:13:45;;;;;;;92.03;30.85;;;3.20;63.40;;;;;;4993431;28;20066;-75
2022/03/09 00:16:13;;;;;;;86.05;29.83;;;3.30;62.70;;;;;;4993273;28;20046;-75
2022/03/09 00:18:41;;;;;;;85.38;29.80;;;3.40;62.60;;;;;;4992879;28;20072;-75
2022/03/09 00:21:08;;;;;;;91.63;29.33;;;3.40;62.60;;;;;;5001217;28;20074;-76
2022/03/09 00:23:35;;;;;;;88.32;30.88;;;3.30;62.40;;;;;;4998445;28;20038;-75
2022/03/09 00:26:02;;;;;;;84.03;30.35;;;3.40;62.60;;;;;;4981675;28;20077;-76
2022/03/09 00:28:31;;;;;;;95.07;30.58;;;3.30;63.40;;;;;;4996070;28;20045;-75
2022/03/09 00:31:02;;;;;;;89.45;29.58;;;3.30;63.30;;;;;;4999585;28;20088;-75
2022/03/09 00:33:32;;;;;;;81.90;28.75;;;3.30;63.30;;;;;;4996714;28;20477;-75
2022/03/09 00:35:59;;;;;;;89.47;29.27;;;3.20;64.00;;;;;;4996601;28;20057;-75
2022/03/09 00:38:28;;;;;;;91.25;29.33;;;3.20;63.70;;;;;;4979981;28;20042;-75
2022/03/09 00:40:55;;;;;;;92.82;29.20;;;3.20;63.50;;;;;;4994751;28;20050;-75
2022/03/09 00:43:22;;;;;;;82.18;27.08;;;3.20;63.70;;;;;;4995987;28;20177;-75
2022/03/09 00:45:50;;;;;;;75.28;26.52;;;3.30;63.80;;;;;;5000315;28;20133;-75
2022/03/09 00:48:17;;;;;;;78.78;27.90;;;3.30;63.20;;;;;;5000947;28;20046;-75
2022/03/09 00:50:44;;;;;;;75.97;25.13;;;3.40;63.10;;;;;;4996771;28;20034;-75
2022/03/09 00:53:11;;;;;;;66.45;25.17;;;3.30;63.50;;;;;;4998662;28;20092;-75
2022/03/09 00:55:39;;;;;;;72.97;26.00;;;3.30;63.80;;;;;;5013455;28;20048;-75
2022/03/09 00:58:06;;;;;;;70.13;25.10;;;3.20;64.10;;;;;;4998084;28;20108;-75
2022/03/09 01:00:34;;;;;;;61.63;24.27;;;3.40;64.00;;;;;;4996876;28;20386;-75
2022/03/09 01:03:01;;;;;;;70.80;26.58;;;3.40;64.00;;;;;;4998856;28;20065;-75
2022/03/09 01:05:28;;;;;;;67.70;24.08;;;3.60;63.90;;;;;;4979202;28;21109;-75
2022/03/09 01:07:55;;;;;;;75.40;24.13;;;3.60;63.80;;;;;;4998400;28;20042;-75
2022/03/09 01:10:22;;;;;;;66.22;22.20;;;3.70;63.60;;;;;;4997223;28;20092;-75
2022/03/09 01:12:50;;;;;;;59.00;21.25;;;3.40;63.80;;;;;;4996319;28;21944;-75
2022/03/09 01:15:17;;;;;;;62.95;22.08;;;3.40;63.90;;;;;;4984177;28;20050;-75
2022/03/09 01:17:45;;;;;;;56.17;21.98;;;3.30;64.30;;;;;;4995039;28;20042;-75
2022/03/09 01:20:13;;;;;;;60.00;20.73;;;3.50;64.50;;;;;;4997532;28;20042;-74
2022/03/09 01:22:41;;;;;;;68.88;21.80;;;3.70;63.40;;;;;;4994890;28;20065;-75
2022/03/09 01:25:09;;;;;;;59.92;20.27;;;3.90;63.00;;;;;;5013453;28;20054;-75
2022/03/09 01:27:37;;;;;;;58.00;20.38;;;3.80;62.90;;;;;;5012236;28;20064;-75
2022/03/09 01:30:05;;;;;;;51.47;20.30;;;3.80;63.40;;;;;;4996742;28;20034;-75
2022/03/09 01:32:32;;;;;;;50.65;19.88;;;3.60;62.90;;;;;;5010741;28;20050;-75
2022/03/09 01:35:00;;;;;;;52.38;19.80;;;3.70;63.40;;;;;;4983000;28;20054;-75
2022/03/09 01:37:27;;;;;;;50.85;19.25;;;3.60;62.80;;;;;;4999257;28;20053;-75
2022/03/09 01:39:54;;;;;;;42.95;17.67;;;3.70;63.10;;;;;;4987548;28;20081;-74
2022/03/09 01:42:21;;;;;;;54.92;17.83;;;3.60;63.30;;;;;;5011954;28;20054;-75
2022/03/09 01:44:52;;;;;;;53.90;18.05;;;3.50;63.50;;;;;;4997363;28;20531;-75
2022/03/09 01:47:19;;;;;;;47.00;17.45;;;3.70;62.80;;;;;;5010577;28;20493;-75
2022/03/09 01:49:46;;;;;;;44.65;16.58;;;3.70;62.80;;;;;;4994807;28;20042;-74
2022/03/09 01:52:13;;;;;;;47.05;16.25;;;3.80;62.50;;;;;;4995837;28;20116;-75
2022/03/09 01:54:41;;;;;;;42.63;14.43;;;3.80;63.30;;;;;;4993201;28;20375;-75
2022/03/09 01:57:08;;;;;;;40.38;14.50;;;3.90;62.10;;;;;;4996931;28;20037;-75
2022/03/09 01:59:35;;;;;;;46.20;15.65;;;3.60;62.40;;;;;;4997140;28;20050;-75
2022/03/09 02:02:03;;;;;;;42.28;15.55;;;3.60;63.60;;;;;;4996975;28;20139;-75
2022/03/09 02:04:31;;;;;;;38.03;14.27;;;3.70;63.10;;;;;;4978701;28;20058;-75
2022/03/09 02:06:58;;;;;;;39.08;13.85;;;3.80;63.10;;;;;;5009819;28;20460;-75
2022/03/09 02:09:44;;;;;;;38.83;14.80;;;3.70;62.90;;;;;;4992782;28;20073;-75
2022/03/09 02:12:18;;;;;;;39.90;15.00;;;3.70;62.90;;;;;;4997548;28;20053;-75
2022/03/09 02:14:51;;;;;;;34.25;14.88;;;3.70;63.40;;;;;;4997898;28;20033;-75
2022/03/09 02:17:27;;;;;;;39.03;14.65;;;3.70;63.50;;;;;;4994275;28;20049;-75
2022/03/09 02:19:55;;;;;;;39.58;14.80;;;3.80;63.50;;;;;;4997264;28;20061;-75
2022/03/09 02:22:32;;;;;;;40.08;15.73;;;3.70;65.30;;;;;;4995569;28;20049;-75
2022/03/09 02:25:06;;;;;;;35.28;14.40;;;3.90;64.20;;;;;;5008830;28;20050;-75
2022/03/09 02:27:33;;;;;;;42.65;15.25;;;4.00;63.50;;;;;;4995753;28;20060;-75
2022/03/09 02:30:01;;;;;;;42.28;15.80;;;4.00;63.00;;;;;;4996628;28;20038;-75
2022/03/09 02:32:29;;;;;;;38.47;15.25;;;4.00;62.70;;;;;;4973294;28;20405;-75
2022/03/09 02:34:56;;;;;;;38.45;13.82;;;3.80;63.10;;;;;;5012377;28;20065;-75
2022/03/09 02:37:23;;;;;;;32.65;12.52;;;3.90;63.60;;;;;;4994971;28;20443;-75
2022/03/09 02:39:50;;;;;;;38.40;13.23;;;3.90;62.80;;;;;;4993104;28;20053;-75
2022/03/09 02:42:18;;;;;;;42.13;15.00;;;3.80;63.10;;;;;;4994511;28;20053;-75
2022/03/09 02:44:45;;;;;;;38.60;13.98;;;3.60;63.40;;;;;;4976356;28;20457;-75
2022/03/09 02:47:12;;;;;;;33.25;13.23;;;3.60;63.70;;;;;;4997960;28;20065;-75
2022/03/09 02:49:39;;;;;;;41.67;12.98;;;3.80;63.60;;;;;;4996234;28;20034;-75
2022/03/09 02:52:06;;;;;;;43.88;12.75;;;3.70;64.00;;;;;;4995858;28;20042;-75
2022/03/09 02:54:33;;;;;;;31.05;11.88;;;3.80;63.80;;;;;;4994232;28;20037;-75
2022/03/09 02:57:00;;;;;;;31.13;12.18;;;3.80;63.30;;;;;;4995592;28;20038;-75
2022/03/09 02:59:27;;;;;;;32.75;11.80;;;3.80;62.90;;;;;;4997308;28;20042;-75
2022/03/09 03:01:55;;;;;;;37.97;13.10;;;3.80;63.20;;;;;;4990049;28;20444;-75
2022/03/09 03:04:24;;;;;;;37.05;13.82;;;3.80;63.50;;;;;;4994960;28;20057;-75
2022/03/09 03:06:52;;;;;;;36.15;13.77;;;4.00;63.40;;;;;;4996355;28;20042;-75
2022/03/09 03:09:19;;;;;;;37.72;13.48;;;3.70;63.40;;;;;;4978234;28;20046;-75
2022/03/09 03:11:47;;;;;;;37.58;13.88;;;3.60;63.40;;;;;;4995617;28;20033;-75
2022/03/09 03:14:14;;;;;;;40.72;14.57;;;3.60;64.30;;;;;;4996992;28;20037;-74
2022/03/09 03:16:41;;;;;;;54.17;16.25;;;3.70;64.20;;;;;;4992760;28;20105;-75
2022/03/09 03:19:09;;;;;;;45.83;16.42;;;3.70;63.90;;;;;;4976335;28;20054;-75
2022/03/09 03:21:36;;;;;;;53.08;17.45;;;3.70;63.80;;;;;;4960383;28;20062;-75
2022/03/09 03:24:04;;;;;;;48.67;17.75;;;3.50;64.30;;;;;;4976005;28;20052;-75
2022/03/09 03:26:31;;;;;;;53.85;19.52;;;3.10;65.50;;;;;;4978314;28;20179;-76
2022/03/09 03:28:58;;;;;;;75.55;22.70;;;3.00;66.80;;;;;;4990055;28;21163;-75
2022/03/09 03:31:29;;;;;;;81.53;22.17;;;2.60;67.30;;;;;;4992472;28;20061;-75
2022/03/09 03:33:57;;;;;;;68.25;22.77;;;2.50;67.20;;;;;;4992773;28;20045;-75
2022/03/09 03:36:24;;;;;;;56.17;21.33;;;2.60;67.10;;;;;;4963619;28;20046;-75
2022/03/09 03:38:52;;;;;;;66.45;20.55;;;2.90;66.90;;;;;;4993058;28;20740;-74
2022/03/09 03:41:20;;;;;;;64.20;21.02;;;3.10;66.20;;;;;;4975354;28;20137;-75
2022/03/09 03:43:47;;;;;;;61.58;19.98;;;3.40;65.30;;;;;;4961586;28;20166;-75
2022/03/09 03:46:14;;;;;;;57.67;18.42;;;3.70;64.70;;;;;;4992381;28;20058;-75
2022/03/09 03:48:41;;;;;;;54.72;19.05;;;3.80;64.50;;;;;;4990105;28;20050;-75
2022/03/09 03:51:08;;;;;;;52.70;18.80;;;3.80;63.60;;;;;;4996842;28;20445;-75
2022/03/09 03:53:35;;;;;;;67.07;18.10;;;3.70;63.90;;;;;;4994785;28;20501;-75
2022/03/09 03:56:02;;;;;;;54.22;18.58;;;3.70;64.40;;;;;;4998667;28;20064;-75
2022/03/09 03:58:30;;;;;;;55.65;19.13;;;3.60;64.50;;;;;;5001317;28;20045;-75
2022/03/09 04:00:58;;;;;;;57.22;19.77;;;3.60;64.60;;;;;;4994685;28;20790;-75
2022/03/09 04:03:25;;;;;;;56.60;20.73;;;3.70;64.70;;;;;;5011695;28;20053;-75
2022/03/09 04:05:52;;;;;;;64.50;23.02;;;3.70;64.30;;;;;;4983772;28;20421;-75
2022/03/09 04:08:19;;;;;;;70.88;23.67;;;3.70;64.20;;;;;;4996427;28;20127;-75
2022/03/09 04:10:47;;;;;;;66.15;23.13;;;3.50;64.60;;;;;;4997677;28;20050;-75
2022/03/09 04:13:14;;;;;;;61.95;21.13;;;3.50;64.80;;;;;;4999009;28;20042;-75
2022/03/09 04:15:41;;;;;;;67.75;22.73;;;3.60;65.80;;;;;;5000550;28;20500;-75
2022/03/09 04:18:08;;;;;;;62.95;20.75;;;3.70;65.20;;;;;;4996618;28;20048;-75
2022/03/09 04:20:35;;;;;;;59.53;21.17;;;3.60;64.80;;;;;;4982287;28;20676;-75
2022/03/09 04:23:08;;;;;;;58.25;20.70;;;3.50;65.30;;;;;;5012726;28;20052;-75
2022/03/09 04:25:39;;;;;;;59.88;21.88;;;3.50;65.90;;;;;;5000269;28;20060;-75
2022/03/09 04:28:07;;;;;;;54.88;20.27;;;3.60;65.40;;;;;;4995566;28;20046;-75
2022/03/09 04:30:34;;;;;;;60.42;19.75;;;3.60;65.40;;;;;;4997253;28;20053;-75
2022/03/09 04:33:01;;;;;;;53.78;19.33;;;3.60;65.80;;;;;;5013244;28;20076;-75
2022/03/09 04:35:28;;;;;;;50.65;18.88;;;3.60;65.40;;;;;;4994286;28;20085;-75
2022/03/09 04:37:55;;;;;;;54.55;17.92;;;3.50;65.00;;;;;;4999285;28;20069;-75
2022/03/09 04:40:23;;;;;;;60.42;20.73;;;3.40;65.30;;;;;;5011301;28;20124;-75
2022/03/09 04:42:52;;;;;;;65.15;20.67;;;3.50;66.00;;;;;;4991940;28;20081;-75
2022/03/09 04:45:19;;;;;;;51.90;17.98;;;3.50;66.20;;;;;;4996815;28;20096;-75
2022/03/09 04:47:46;;;;;;;53.00;19.00;;;3.60;65.50;;;;;;4996247;28;20057;-75
2022/03/09 04:50:13;;;;;;;59.85;18.80;;;3.50;65.70;;;;;;4997707;28;20116;-75
2022/03/09 04:52:41;;;;;;;47.42;17.77;;;3.30;65.90;;;;;;4979295;28;20123;-75
2022/03/09 04:55:08;;;;;;;55.78;18.85;;;3.30;66.40;;;;;;4997661;28;20113;-75
2022/03/09 04:57:38;;;;;;;53.55;19.40;;;3.30;66.30;;;;;;4976251;28;20050;-75
2022/03/09 05:00:08;;;;;;;48.17;17.15;;;3.30;66.50;;;;;;4997619;28;20052;-75
2022/03/09 05:02:35;;;;;;;43.53;15.93;;;3.30;66.90;;;;;;4996455;28;20057;-75
2022/03/09 05:05:03;;;;;;;43.47;17.73;;;3.40;66.70;;;;;;4997285;28;20053;-75
2022/03/09 05:07:31;;;;;;;45.92;16.55;;;3.50;66.30;;;;;;5010838;28;20096;-75
2022/03/09 05:09:59;;;;;;;46.78;17.45;;;3.40;66.70;;;;;;4999026;28;20049;-75
2022/03/09 05:12:26;;;;;;;37.13;15.27;;;3.30;66.90;;;;;;4996435;28;20038;-75
2022/03/09 05:14:53;;;;;;;37.78;15.13;;;3.50;66.20;;;;;;4995887;28;20038;-74
2022/03/09 05:17:22;;;;;;;42.20;15.52;;;3.50;64.90;;;;;;4995104;28;20049;-75
2022/03/09 05:19:49;;;;;;;46.45;16.08;;;3.50;65.10;;;;;;4999296;28;20050;-75
2022/03/09 05:22:17;;;;;;;39.42;15.25;;;3.60;64.80;;;;;;4997142;28;20493;-75
2022/03/09 05:24:51;;;;;;;39.40;15.25;;;3.60;64.70;;;;;;4997506;28;20049;-75
2022/03/09 05:27:18;;;;;;;34.78;13.57;;;3.40;65.00;;;;;;5013079;28;21444;-75
2022/03/09 05:29:45;;;;;;;41.03;14.20;;;3.40;65.70;;;;;;4992482;28;20054;-75
2022/03/09 05:32:12;;;;;;;35.00;14.32;;;3.40;66.20;;;;;;4997393;28;20129;-75
2022/03/09 05:34:39;;;;;;;41.33;16.00;;;3.60;65.80;;;;;;4996215;28;20050;-75
2022/03/09 05:37:07;;;;;;;31.80;14.02;;;3.60;65.70;;;;;;4995772;28;20049;-75
2022/03/09 05:39:34;;;;;;;38.75;14.13;;;3.80;64.90;;;;;;4994090;28;20510;-75
2022/03/09 05:42:01;;;;;;;40.00;13.98;;;3.80;64.60;;;;;;4997686;28;20164;-75
2022/03/09 05:44:28;;;;;;;36.55;13.63;;;3.80;65.10;;;;;;4994408;28;20054;-75
2022/03/09 05:46:57;;;;;;;40.88;15.18;;;3.70;65.80;;;;;;4992252;28;20152;-75
2022/03/09 05:49:24;;;;;;;34.75;15.40;;;3.70;66.10;;;;;;4996620;28;20056;-75
2022/03/09 05:51:54;;;;;;;45.45;15.55;;;4.40;65.80;;;;;;4997686;28;20478;-75
2022/03/09 05:54:21;;;;;;;48.15;16.35;;;3.80;65.40;;;;;;4995691;28;20042;-75
2022/03/09 05:56:48;;;;;;;40.22;15.55;;;3.90;64.80;;;;;;4995472;28;20209;-75
2022/03/09 05:59:15;;;;;;;46.13;16.13;;;3.90;64.50;;;;;;5011061;28;20050;-75
2022/03/09 06:01:45;;;;;;;43.65;17.35;;;3.80;64.70;;;;;;4993053;28;20501;-75
2022/03/09 06:04:13;;;;;;;48.88;18.23;;;3.90;64.60;;;;;;4995876;28;20038;-75
2022/03/09 06:06:40;;;;;;;39.53;15.20;;;4.00;65.00;;;;;;4995516;28;20038;-75
2022/03/09 06:09:07;;;;;;;41.10;15.48;;;4.00;64.90;;;;;;4997907;28;20058;-75
2022/03/09 06:11:34;;;;;;;37.92;15.75;;;3.80;65.00;;;;;;4998174;28;20092;-75
2022/03/09 06:14:01;;;;;;;35.25;15.35;;;3.60;65.30;;;;;;4980312;28;20391;-76
2022/03/09 06:16:28;;;;;;;39.88;14.70;;;3.70;65.30;;;;;;4995113;28;20062;-77
2022/03/09 06:18:55;;;;;;;36.05;13.23;;;3.70;65.70;;;;;;4992582;28;20057;-75
2022/03/09 06:21:22;;;;;;;39.15;14.40;;;3.90;65.10;;;;;;4995346;28;20562;-75
2022/03/09 06:23:52;;;;;;;40.03;15.20;;;3.90;65.50;;;;;;4994680;28;20061;-75
2022/03/09 06:26:19;;;;;;;43.15;15.20;;;4.10;64.80;;;;;;4996824;28;21052;-75
2022/03/09 06:28:46;;;;;;;38.78;16.02;;;4.10;65.20;;;;;;4995679;28;20046;-75
2022/03/09 06:31:13;;;;;;;39.22;15.63;;;4.10;65.50;;;;;;4994086;28;20108;-75
2022/03/09 06:33:40;;;;;;;51.53;17.95;;;4.10;65.20;;;;;;4995086;28;20151;-75
2022/03/09 06:36:08;;;;;;;54.92;20.83;;;3.80;65.60;;;;;;4997118;28;20116;-75
2022/03/09 06:38:36;;;;;;;43.25;14.07;;;3.90;65.90;;;;;;4995875;28;20533;-75
2022/03/09 06:41:03;;;;;;;50.92;17.13;;;3.60;66.60;;;;;;4997075;28;20050;-75
2022/03/09 06:43:30;;;;;;;100.43;31.10;;;3.40;67.30;;;;;;4994558;28;20057;-74
2022/03/09 06:45:58;;;;;;;172.50;51.35;;;3.60;67.90;;;;;;4980765;28;20046;-75
2022/03/09 06:48:26;;;;;;;70.30;24.75;;;3.90;67.70;;;;;;4995591;28;20576;-75
2022/03/09 06:50:53;;;;;;;39.17;13.77;;;4.00;67.00;;;;;;4977621;28;20108;-75
2022/03/09 06:53:20;;;;;;;34.28;14.52;;;4.20;66.40;;;;;;4993494;28;20042;-74
2022/03/09 06:55:47;;;;;;;33.85;15.10;;;4.30;66.20;;;;;;4994659;28;20037;-75
2022/03/09 06:58:16;;;;;;;31.60;13.43;;;4.40;65.60;;;;;;4979433;28;20096;-75
2022/03/09 07:00:43;;;;;;;36.25;14.63;;;4.40;66.00;;;;;;4969560;28;20129;-75
2022/03/09 07:03:11;;;;;;;31.52;13.55;;;4.50;65.70;;;;;;4969552;28;22768;-75
2022/03/09 07:05:38;;;;;;;28.83;12.32;;;4.50;65.40;;;;;;4972832;28;20054;-75
2022/03/09 07:08:05;;;;;;;24.63;11.93;;;4.70;65.30;;;;;;4953650;28;20064;-75
2022/03/09 07:10:36;;;;;;;30.70;11.77;;;4.80;65.20;;;;;;4972683;28;20050;-75
2022/03/09 07:13:03;;;;;;;34.88;12.48;;;4.80;65.50;;;;;;4972188;28;20080;-75
2022/03/09 07:15:30;;;;;;;30.30;12.93;;;5.00;65.30;;;;;;4954254;28;20046;-75
2022/03/09 07:17:57;;;;;;;28.38;13.18;;;4.90;65.50;;;;;;4971606;28;20058;-75
2022/03/09 07:20:24;;;;;;;31.48;12.38;;;5.10;65.50;;;;;;4986965;28;20900;-75
2022/03/09 07:22:53;;;;;;;32.38;12.90;;;5.20;65.10;;;;;;4969611;28;20077;-75
2022/03/09 07:25:20;;;;;;;36.00;13.63;;;5.30;64.90;;;;;;4973168;28;20923;-75
2022/03/09 07:27:47;;;;;;;40.25;17.77;;;5.40;65.10;;;;;;4970289;28;20073;-75
2022/03/09 07:30:15;;;;;;;37.65;13.75;;;5.30;65.20;;;;;;4988292;28;20054;-75
2022/03/09 07:32:41;;;;;;;29.98;12.32;;;5.10;65.80;;;;;;4967837;28;20277;-73
2022/03/09 07:35:19;;;;;;;37.70;15.02;;;5.10;65.10;;;;;;4981844;28;20085;-73
2022/03/09 07:37:50;;;;;;;36.08;12.90;;;5.20;65.40;;;;;;4965876;28;20080;-73
2022/03/09 07:40:18;;;;;;;31.77;13.23;;;5.30;64.90;;;;;;4969284;28;20057;-73
2022/03/09 07:42:45;;;;;;;29.88;13.07;;;5.40;64.50;;;;;;4984872;28;20146;-73
2022/03/09 07:45:12;;;;;;;30.48;11.82;;;5.40;65.00;;;;;;4968282;28;20137;-73
2022/03/09 07:47:40;;;;;;;33.38;12.70;;;5.50;64.50;;;;;;4969092;28;20054;-73
2022/03/09 07:50:08;;;;;;;36.92;13.10;;;5.70;64.20;;;;;;4968046;28;20057;-73
2022/03/09 07:52:36;;;;;;;40.00;13.98;;;5.60;62.80;;;;;;4967677;28;21120;-74
2022/03/09 07:55:05;;;;;;;27.77;11.27;;;5.80;63.00;;;;;;4966636;28;20057;-74
2022/03/09 07:57:32;;;;;;;26.42;11.10;;;5.80;61.80;;;;;;4985124;28;20128;-73
2022/03/09 08:00:00;;;;;;;24.83;9.25;;;5.90;61.70;;;;;;4968527;28;20054;-73
2022/03/09 08:02:38;;;;;;;29.85;11.32;;;5.80;61.30;;;;;;4968266;28;20192;-75
2022/03/09 08:05:08;;;;;;;27.40;11.02;;;5.90;61.60;;;;;;4961257;28;20741;-74
2022/03/09 08:07:35;;;;;;;21.35;9.45;;;5.90;61.60;;;;;;4967156;28;20235;-74
2022/03/09 08:10:04;;;;;;;16.30;7.20;;;5.80;59.80;;;;;;4951968;28;20064;-73
2022/03/09 08:12:31;;;;;;;21.58;9.18;;;5.90;59.40;;;;;;4968216;28;20046;-73
2022/03/09 08:14:59;;;;;;;26.60;10.68;;;5.90;59.30;;;;;;4968866;28;20073;-73
2022/03/09 08:17:26;;;;;;;28.95;10.98;;;6.00;59.30;;;;;;4966598;28;21095;-73
2022/03/09 08:19:58;;;;;;;19.83;7.60;;;5.90;58.40;;;;;;4966804;28;20045;-73
2022/03/09 08:22:26;;;;;;;22.80;8.98;;;5.90;58.60;;;;;;4961114;28;20220;-74
2022/03/09 08:24:53;;;;;;;21.38;8.32;;;5.90;59.20;;;;;;4968464;28;20049;-73
2022/03/09 08:27:20;;;;;;;25.80;10.30;;;6.00;58.90;;;;;;4984230;28;20042;-73
2022/03/09 08:29:47;;;;;;;22.08;9.65;;;6.10;58.90;;;;;;4984501;28;20045;-74
2022/03/09 08:32:14;;;;;;;19.30;8.77;;;6.30;59.70;;;;;;4941241;28;20069;-74
2022/03/09 08:34:41;;;;;;;22.15;9.45;;;6.40;58.70;;;;;;4968860;28;20925;-74
2022/03/09 08:37:08;;;;;;;24.85;9.02;;;6.50;57.90;;;;;;4968670;28;20511;-74
2022/03/09 08:39:35;;;;;;;19.73;8.25;;;6.50;57.60;;;;;;4961447;28;20065;-73
2022/03/09 08:42:02;;;;;;;23.05;7.68;;;6.50;57.20;;;;;;4975479;28;20457;-73
2022/03/09 08:44:39;;;;;;;23.42;9.63;;;6.50;57.70;;;;;;4972131;28;21228;-74
2022/03/09 08:47:06;;;;;;;25.85;9.63;;;6.60;57.80;;;;;;4970774;28;20064;-74
2022/03/09 08:49:35;;;;;;;19.60;8.65;;;6.90;57.80;;;;;;4965296;28;20050;-74
2022/03/09 08:52:04;;;;;;;23.40;9.07;;;7.10;58.30;;;;;;4972636;28;20648;-74
2022/03/09 08:54:31;;;;;;;23.77;8.15;;;7.20;57.20;;;;;;4971868;28;20840;-75
2022/03/09 08:56:59;;;;;;;17.27;8.23;;;7.10;56.80;;;;;;4971859;28;20505;-74
2022/03/09 08:59:26;;;;;;;19.88;8.38;;;7.20;56.60;;;;;;4969559;28;20155;-75
2022/03/09 09:01:53;;;;;;;22.48;7.80;;;7.30;56.40;;;;;;4972061;28;20085;-74
2022/03/09 09:04:21;;;;;;;19.27;7.68;;;7.30;56.50;;;;;;4970825;28;20056;-73
2022/03/09 09:06:49;;;;;;;18.65;7.70;;;7.40;56.50;;;;;;4987243;28;20046;-74
2022/03/09 09:09:17;;;;;;;18.38;7.88;;;7.60;56.90;;;;;;4957198;28;22510;-73
2022/03/09 09:11:45;;;;;;;17.17;7.28;;;7.80;55.90;;;;;;4973502;28;20128;-74
2022/03/09 09:14:13;;;;;;;20.15;8.20;;;7.80;54.20;;;;;;4974436;28;20062;-74
2022/03/09 09:16:47;;;;;;;17.73;7.25;;;7.80;54.30;;;;;;4956614;28;20046;-73
2022/03/09 09:19:15;;;;;;;15.73;6.90;;;8.00;53.70;;;;;;4967468;28;20084;-74
2022/03/09 09:22:03;;;;;;;14.48;6.22;;;8.00;53.90;;;;;;4968892;28;20137;-74
2022/03/09 09:24:30;;;;;;;15.48;6.32;;;8.20;53.00;;;;;;4987020;28;20050;-75
2022/03/09 09:26:58;;;;;;;16.10;6.80;;;8.20;52.60;;;;;;4971077;28;20125;-74
2022/03/09 09:29:28;;;;;;;15.55;6.75;;;8.30;53.00;;;;;;4986085;28;20056;-74
2022/03/09 09:31:56;;;;;;;14.55;6.13;;;8.30;53.40;;;;;;4989606;28;20084;-74
2022/03/09 09:34:23;;;;;;;16.83;6.43;;;8.60;53.70;;;;;;4963977;28;20046;-74
2022/03/09 09:36:52;;;;;;;16.73;7.60;;;8.60;52.60;;;;;;4970059;28;22787;-73
2022/03/09 09:39:20;;;;;;;16.63;7.32;;;8.70;52.60;;;;;;4972574;28;20054;-74
2022/03/09 09:41:52;;;;;;;13.93;6.30;;;9.10;52.90;;;;;;4969316;28;20128;-74
2022/03/09 09:44:23;;;;;;;18.02;6.47;;;9.00;52.20;;;;;;4971460;28;20833;-73
2022/03/09 09:46:52;;;;;;;12.05;5.18;;;9.00;52.60;;;;;;4970279;28;20069;-74
2022/03/09 09:49:25;;;;;;;11.95;4.93;;;9.10;52.30;;;;;;4969407;28;20046;-73
2022/03/09 09:51:53;;;;;;;13.95;5.95;;;9.10;52.40;;;;;;4968579;28;20741;-74
2022/03/09 09:54:23;;;;;;;11.80;4.47;;;9.40;52.10;;;;;;4972531;28;20053;-74
2022/03/09 09:56:52;;;;;;;10.95;4.65;;;9.30;50.70;;;;;;4986551;28;22579;-74
2022/03/09 09:59:19;;;;;;;6.85;3.50;;;9.40;50.70;;;;;;4987690;28;22380;-74
2022/03/09 10:01:46;;;;;;;8.38;3.67;;;9.50;51.20;;;;;;4966935;28;20042;-73
2022/03/09 10:04:13;;;;;;;9.23;3.17;;;9.60;50.50;;;;;;4967842;28;20050;-74
2022/03/09 10:06:40;;;;;;;9.43;3.58;;;9.60;50.50;;;;;;4968875;28;22577;-74
2022/03/09 10:09:12;;;;;;;10.55;5.05;;;9.50;50.70;;;;;;4971763;28;20049;-74
2022/03/09 10:11:53;;;;;;;12.43;3.97;;;9.70;51.20;;;;;;4969260;28;20054;-74
2022/03/09 10:14:39;;;;;;;8.23;4.25;;;9.70;49.40;;;;;;4970050;28;20322;-74
2022/03/09 10:17:09;;;;;;;10.30;4.50;;;9.60;50.50;;;;;;4972114;28;20045;-74
2022/03/09 10:19:39;;;;;;;8.60;4.40;;;9.70;51.30;;;;;;4970509;28;20232;-74
2022/03/09 10:22:35;;;;;;;12.10;3.75;;;9.80;51.40;;;;;;4968495;28;20054;-74
2022/03/09 10:25:20;;;;;;;9.25;3.45;;;10.10;51.30;;;;;;4982480;28;20061;-74
2022/03/09 10:27:50;;;;;;;9.63;3.75;;;10.20;49.90;;;;;;4970496;28;20080;-74
2022/03/09 10:30:30;;;;;;;9.30;3.72;;;10.20;49.50;;;;;;4986753;28;20113;-74
2022/03/09 10:33:00;;;;;;;13.18;4.25;;;10.20;50.40;;;;;;4969583;28;20042;-74
2022/03/09 10:35:30;;;;;;;6.85;3.35;;;10.30;50.00;;;;;;4974573;28;20818;-75
2022/03/09 10:37:59;;;;;;;7.55;3.72;;;10.40;51.70;;;;;;4971579;28;20049;-74
2022/03/09 10:40:27;;;;;;;9.57;3.80;;;10.40;49.50;;;;;;4969630;28;20556;-74
2022/03/09 10:43:17;;;;;;;8.57;4.10;;;10.30;51.20;;;;;;4968376;28;20057;-74
2022/03/09 10:45:59;;;;;;;9.43;4.57;;;10.50;49.10;;;;;;4969074;28;20528;-74
2022/03/09 10:48:49;;;;;;;11.50;5.20;;;10.60;49.50;;;;;;4971275;28;22618;-74
2022/03/09 10:51:31;;;;;;;11.65;4.35;;;10.80;49.70;;;;;;4962511;28;22551;-74
2022/03/09 10:54:01;;;;;;;11.45;4.32;;;10.80;49.80;;;;;;4967351;28;20938;-74
2022/03/09 10:56:28;;;;;;;12.02;4.80;;;11.10;50.40;;;;;;4968105;28;20487;-74
2022/03/09 10:58:55;;;;;;;9.90;4.35;;;11.30;49.00;;;;;;4985064;28;20230;-75
2022/03/09 11:01:23;;;;;;;11.00;3.80;;;11.40;48.80;;;;;;4966421;28;20066;-74
2022/03/09 11:03:51;;;;;;;9.43;4.10;;;11.50;48.70;;;;;;4965464;28;20050;-74
2022/03/09 11:06:21;;;;;;;10.80;5.03;;;11.50;48.50;;;;;;4970059;28;20521;-74
2022/03/09 11:08:48;;;;;;;8.05;3.03;;;11.70;48.50;;;;;;4960323;28;20042;-74
2022/03/09 11:11:16;;;;;;;7.10;3.78;;;11.70;47.60;;;;;;4944669;28;21025;-75
2022/03/09 11:13:43;;;;;;;9.73;5.38;;;11.80;48.40;;;;;;4969529;28;20053;-74
2022/03/09 11:16:10;;;;;;;8.55;4.70;;;12.00;48.20;;;;;;4968390;28;20152;-74
2022/03/09 11:18:38;;;;;;;12.05;5.28;;;12.00;48.10;;;;;;4967454;28;21435;-74
2022/03/09 11:21:08;;;;;;;9.60;5.35;;;11.90;46.50;;;;;;4958642;28;20593;-74
2022/03/09 11:23:41;;;;;;;9.48;4.25;;;11.80;48.40;;;;;;4978255;28;22619;-74
2022/03/09 11:26:23;;;;;;;9.80;4.80;;;12.00;47.70;;;;;;4963600;28;20076;-74
2022/03/09 11:29:00;;;;;;;7.85;3.40;;;12.00;47.10;;;;;;4964495;28;20092;-74
2022/03/09 11:31:42;;;;;;;11.70;4.28;;;12.20;46.90;;;;;;4963228;28;20141;-74
2022/03/09 11:34:34;;;;;;;7.85;3.53;;;12.40;46.20;;;;;;4982014;28;22798;-75
2022/03/09 11:37:07;;;;;;;9.63;3.88;;;12.20;46.30;;;;;;4964324;28;22388;-75
2022/03/09 11:39:41;;;;;;;7.10;3.58;;;12.10;46.50;;;;;;4964002;28;20046;-75
2022/03/09 11:42:20;;;;;;;8.23;4.82;;;12.20;46.90;;;;;;4959477;28;20068;-75
2022/03/09 11:45:16;;;;;;;10.88;3.78;;;12.30;46.90;;;;;;4972258;28;24300;-75
2022/03/09 11:48:05;;;;;;;7.22;3.88;;;12.40;46.70;;;;;;4983355;28;20065;-75
2022/03/09 11:50:46;;;;;;;8.43;3.35;;;12.40;46.30;;;;;;4967556;28;20065;-75
2022/03/09 11:53:34;;;;;;;7.80;3.88;;;12.50;45.90;;;;;;4949846;28;20173;-75
2022/03/09 11:56:21;;;;;;;5.18;2.90;;;12.50;46.20;;;;;;4965028;28;20210;-75
2022/03/09 11:59:07;;;;;;;7.70;3.65;;;12.60;45.90;;;;;;4992023;28;20057;-75
2022/03/09 12:02:00;;;;;;;8.00;3.25;;;12.40;46.00;;;;;;4987904;28;20054;-75
2022/03/09 12:04:40;;;;;;;10.23;3.20;;;12.60;45.50;;;;;;4993219;28;20054;-75
2022/03/09 12:07:35;;;;;;;9.50;4.70;;;12.70;45.90;;;;;;4964172;28;20042;-76
2022/03/09 12:10:14;;;;;;;10.15;4.70;;;12.80;45.70;;;;;;4961547;28;20046;-75
2022/03/09 12:13:20;;;;;;;9.68;3.72;;;12.80;46.40;;;;;;4949371;28;20058;-75
2022/03/09 12:16:14;;;;;;;8.95;3.90;;;13.00;45.90;;;;;;4980967;28;20509;-75
2022/03/09 12:18:47;;;;;;;7.88;3.47;;;13.10;45.90;;;;;;4997527;28;20049;-75
2022/03/09 12:21:28;;;;;;;13.65;4.13;;;13.20;45.50;;;;;;5008345;28;20050;-75
2022/03/09 12:24:04;;;;;;;9.18;4.38;;;13.30;45.50;;;;;;5011624;28;20118;-75
2022/03/09 12:26:48;;;;;;;7.85;3.35;;;13.20;45.80;;;;;;5013042;28;20628;-75
2022/03/09 12:29:21;;;;;;;11.48;5.43;;;13.30;45.30;;;;;;4996791;28;20085;-75
2022/03/09 12:32:13;;;;;;;6.97;3.80;;;13.40;44.90;;;;;;5013658;28;20042;-75
2022/03/09 12:34:46;;;;;;;8.55;4.35;;;13.30;45.40;;;;;;4999225;28;20117;-75
2022/03/09 12:37:16;;;;;;;8.57;3.78;;;13.20;45.40;;;;;;5012807;28;20058;-75
2022/03/09 12:39:52;;;;;;;8.10;3.20;;;13.10;45.60;;;;;;4997119;28;20606;-75
2022/03/09 12:42:21;;;;;;;6.47;3.22;;;13.20;45.00;;;;;;5002415;28;20494;-75
2022/03/09 12:44:49;;;;;;;6.78;2.85;;;13.10;45.50;;;;;;4998404;28;20057;-75
2022/03/09 12:47:18;;;;;;;10.00;2.80;;;13.00;45.60;;;;;;5000783;28;20062;-75
2022/03/09 12:49:49;;;;;;;3.75;1.90;;;13.10;44.20;;;;;;4997770;28;20061;-75
2022/03/09 12:52:18;;;;;;;5.38;1.92;;;13.10;44.50;;;;;;4982135;28;20073;-75
2022/03/09 12:54:48;;;;;;;8.10;2.83;;;13.20;44.70;;;;;;4996768;28;20393;-75